Fort Hill, PA

8:43 PM EST on March 01, 2015 (GMT -0500)
Greater Cumberland Regional | Change Station
CLOSE
Current Station
Airport
Location: Cumberland,
Elevation: 774 ft
Nearby Weather Stations

Elev 774 ft 39.62 °N, 78.76 °W | Updated 8 minutes ago

Rain
Rain
32 °F
Feels Like 32 °F
N
0
Wind Variable Wind from North

Today
High -- | Low -- °F
--% Chance of Precip.
Yesterday
High -- | Low -- °F
Precip. -- in
6:50 AM 6:08 PM
Waxing Gibbous, 88% visible
Pressure 30.24 in
Visibility 7.0 miles
Clouds Mostly Cloudy 1000 ft
Overcast 2800 ft
Dew Point 30 °F
Humidity 93%
Rainfall 0.00 in
Snow Depth Not available.
UV 0 out of 12
Pollen .50 out of 12
Air Quality Not available.
Flu Activity Not available.
METAR KCBE 020135Z AUTO 00000KT 7SM BKN010 OVC028 00/M01 A3024 RMK AO1

More Conditions Fewer Conditions

Pressure 30.24 in
Visibility 7.0 miles
Clouds Mostly Cloudy 1000 ft
Overcast 2800 ft
Dew Point 30 °F
Humidity 93%
Rainfall 0.00 in
Snow Depth Not available.
UV 0 out of 12
Pollen .50 out of 12
Air Quality Not available.
Flu Activity Not available.
METAR KCBE 020135Z AUTO 00000KT 7SM BKN010 OVC028 00/M01 A3024 RMK AO1

More Conditions Fewer Conditions

10-Day Weather Forecast

Almanac

Astronomy

Mar. 01, 2015 Rise Set
Actual Time
Civil Twilight
Nautical Twilight
Astronomical Twilight
Moon
Length of Visible Light
Length of Day
Tomorrow will be .
, % of the Moon is Illuminated

Today's Extremes

State Highs State Lows

Community

WunderPhotos

Upload Photos

1,801,677 photos uploaded!

WunderBlogs® & News

Nearby

Air Quality

  Air Quality AQ Index Pollutant
Not available.

Snow Depth

Station Depth Elevation

Earthquake Activity

City Distance Mag. Time & Date
Minimum magnitude displayed is 2.5.

Coastal Water Temperatures

Place Temperature

Nearby Weather Stations

Winter Weather Advisory
Statement as of 7:57 PM EST on March 01, 2015

... Winter Weather Advisory remains in effect until 7 am EST
Monday...

* locations... the Laurel Highlands.

* Hazard types... snow and areas of freezing rain or drizzle.

* Additional snow accumulations... 1 to 3 inches.

* Ice accumulations... a trace to one tenth of an inch.

* Timing... a mix of light rain and snow... and pockets of freezing
rain or drizzle will turn to just snow showers after midnight.
These snow showers will continue into Monday morning.

* Impacts... hazardous travel from snow or slush covered roads.
Untreated roadways and walkways may also be icy.

Precautionary/preparedness actions...

Hazardous winter weather conditions are expected or occurring.
Use caution if traveling. For the latest weather information... go
to weather.Gov/statecollege or monitor NOAA Weather Radio.

Report snow or ice accumulation to the National Weather Service
State College by sending an email to ctp.Stormreports@noaa.Gov...
posting to the NWS State College facebook Page... or tweet
@nwsstatecollege with the hashtag c... T... p... W... x.